sensor_id;sensor_type;location;lat;lon;timestamp;temperature;humidity
21121;DHT22;12519;43.318;21.898;2022-11-21T00:00:10;10.1;100.0
21121;DHT22;12519;43.318;21.898;2022-11-21T00:04:48;10.1;100.0
21121;DHT22;12519;43.318;21.898;2022-11-21T00:09:25;10.1;100.0
21121;DHT22;12519;43.318;21.898;2022-11-21T00:14:02;9.8;100.0
21121;DHT22;12519;43.318;21.898;2022-11-21T00:18:40;9.8;100.0
21121;DHT22;12519;43.318;21.898;2022-11-21T00:23:18;9.4;100.0
21121;DHT22;12519;43.318;21.898;2022-11-21T00:27:55;9.4;100.0
21121;DHT22;12519;43.318;21.898;2022-11-21T00:32:32;9.2;100.0
21121;DHT22;12519;43.318;21.898;2022-11-21T00:37:08;9.2;100.0
21121;DHT22;12519;43.318;21.898;2022-11-21T00:41:44;9.1;100.0
21121;DHT22;12519;43.318;21.898;2022-11-21T00:46:20;9.1;100.0
21121;DHT22;12519;43.318;21.898;2022-11-21T00:50:57;9.0;100.0
21121;DHT22;12519;43.318;21.898;2022-11-21T00:55:34;9.0;100.0
21121;DHT22;12519;43.318;21.898;2022-11-21T01:00:14;8.9;100.0
21121;DHT22;12519;43.318;21.898;2022-11-21T01:04:52;8.9;100.0
21121;DHT22;12519;43.318;21.898;2022-11-21T01:09:28;8.9;100.0
21121;DHT22;12519;43.318;21.898;2022-11-21T01:14:05;8.9;100.0
21121;DHT22;12519;43.318;21.898;2022-11-21T01:18:42;8.9;100.0
21121;DHT22;12519;43.318;21.898;2022-11-21T01:23:20;8.9;100.0
21121;DHT22;12519;43.318;21.898;2022-11-21T01:27:56;8.9;100.0
21121;DHT22;12519;43.318;21.898;2022-11-21T01:32:32;8.9;100.0
21121;DHT22;12519;43.318;21.898;2022-11-21T01:37:09;8.9;100.0
21121;DHT22;12519;43.318;21.898;2022-11-21T01:41:45;8.8;100.0
21121;DHT22;12519;43.318;21.898;2022-11-21T01:46:23;8.8;100.0
21121;DHT22;12519;43.318;21.898;2022-11-21T01:51:11;8.6;100.0
21121;DHT22;12519;43.318;21.898;2022-11-21T01:55:56;8.6;100.0
21121;DHT22;12519;43.318;21.898;2022-11-21T02:00:39;8.5;100.0
21121;DHT22;12519;43.318;21.898;2022-11-21T02:05:30;8.5;100.0
21121;DHT22;12519;43.318;21.898;2022-11-21T02:10:14;8.5;100.0
21121;DHT22;12519;43.318;21.898;2022-11-21T02:14:54;8.5;100.0
21121;DHT22;12519;43.318;21.898;2022-11-21T02:19:50;8.5;100.0
21121;DHT22;12519;43.318;21.898;2022-11-21T02:24:45;8.5;100.0
21121;DHT22;12519;43.318;21.898;2022-11-21T02:29:36;8.5;100.0
21121;DHT22;12519;43.318;21.898;2022-11-21T02:34:15;8.4;100.0
21121;DHT22;12519;43.318;21.898;2022-11-21T02:38:52;8.4;100.0
21121;DHT22;12519;43.318;21.898;2022-11-21T02:43:38;8.4;100.0
21121;DHT22;12519;43.318;21.898;2022-11-21T02:48:30;8.4;100.0
21121;DHT22;12519;43.318;21.898;2022-11-21T02:53:13;8.4;100.0
21121;DHT22;12519;43.318;21.898;2022-11-21T02:57:55;8.4;100.0
21121;DHT22;12519;43.318;21.898;2022-11-21T03:02:32;8.4;100.0
21121;DHT22;12519;43.318;21.898;2022-11-21T03:07:10;8.4;100.0
21121;DHT22;12519;43.318;21.898;2022-11-21T03:11:46;8.2;100.0
21121;DHT22;12519;43.318;21.898;2022-11-21T03:16:23;8.2;100.0
21121;DHT22;12519;43.318;21.898;2022-11-21T03:20:59;8.1;100.0
21121;DHT22;12519;43.318;21.898;2022-11-21T03:25:36;8.1;100.0
21121;DHT22;12519;43.318;21.898;2022-11-21T03:30:12;8.1;100.0
21121;DHT22;12519;43.318;21.898;2022-11-21T03:34:49;8.0;100.0
21121;DHT22;12519;43.318;21.898;2022-11-21T03:39:26;8.0;100.0
21121;DHT22;12519;43.318;21.898;2022-11-21T03:44:07;7.8;100.0
21121;DHT22;12519;43.318;21.898;2022-11-21T03:48:45;7.8;100.0
21121;DHT22;12519;43.318;21.898;2022-11-21T03:53:22;7.8;100.0
21121;DHT22;12519;43.318;21.898;2022-11-21T03:57:59;7.8;100.0
21121;DHT22;12519;43.318;21.898;2022-11-21T04:02:35;7.9;100.0
21121;DHT22;12519;43.318;21.898;2022-11-21T04:07:11;7.9;100.0
21121;DHT22;12519;43.318;21.898;2022-11-21T04:11:48;8.1;100.0
21121;DHT22;12519;43.318;21.898;2022-11-21T04:16:24;8.1;100.0
21121;DHT22;12519;43.318;21.898;2022-11-21T04:21:06;8.3;100.0
21121;DHT22;12519;43.318;21.898;2022-11-21T04:25:43;8.3;100.0
21121;DHT22;12519;43.318;21.898;2022-11-21T04:30:20;8.3;100.0
21121;DHT22;12519;43.318;21.898;2022-11-21T04:34:56;7.8;100.0
21121;DHT22;12519;43.318;21.898;2022-11-21T04:39:32;7.8;100.0
21121;DHT22;12519;43.318;21.898;2022-11-21T04:44:08;7.2;100.0
21121;DHT22;12519;43.318;21.898;2022-11-21T04:48:44;7.2;100.0
21121;DHT22;12519;43.318;21.898;2022-11-21T04:53:21;7.1;100.0
21121;DHT22;12519;43.318;21.898;2022-11-21T04:57:58;7.1;100.0
21121;DHT22;12519;43.318;21.898;2022-11-21T05:02:35;7.0;100.0
21121;DHT22;12519;43.318;21.898;2022-11-21T05:07:13;7.0;100.0
21121;DHT22;12519;43.318;21.898;2022-11-21T05:11:50;7.0;100.0
21121;DHT22;12519;43.318;21.898;2022-11-21T05:16:27;7.0;100.0
21121;DHT22;12519;43.318;21.898;2022-11-21T05:21:03;7.1;100.0
21121;DHT22;12519;43.318;21.898;2022-11-21T05:25:40;7.1;100.0
21121;DHT22;12519;43.318;21.898;2022-11-21T05:30:17;7.1;100.0
21121;DHT22;12519;43.318;21.898;2022-11-21T05:34:54;8.1;100.0
21121;DHT22;12519;43.318;21.898;2022-11-21T05:39:31;8.1;100.0
21121;DHT22;12519;43.318;21.898;2022-11-21T05:44:07;9.1;100.0
21121;DHT22;12519;43.318;21.898;2022-11-21T05:48:47;9.1;100.0
21121;DHT22;12519;43.318;21.898;2022-11-21T05:53:26;8.5;100.0
21121;DHT22;12519;43.318;21.898;2022-11-21T05:58:02;8.5;100.0
21121;DHT22;12519;43.318;21.898;2022-11-21T06:02:39;7.9;100.0
21121;DHT22;12519;43.318;21.898;2022-11-21T06:07:15;7.9;100.0
21121;DHT22;12519;43.318;21.898;2022-11-21T06:11:52;7.8;100.0
21121;DHT22;12519;43.318;21.898;2022-11-21T06:16:28;7.8;100.0
21121;DHT22;12519;43.318;21.898;2022-11-21T06:21:15;7.8;100.0
21121;DHT22;12519;43.318;21.898;2022-11-21T06:25:58;7.8;100.0
21121;DHT22;12519;43.318;21.898;2022-11-21T06:30:39;7.8;100.0
21121;DHT22;12519;43.318;21.898;2022-11-21T06:35:16;7.8;100.0
21121;DHT22;12519;43.318;21.898;2022-11-21T06:39:52;7.8;100.0
21121;DHT22;12519;43.318;21.898;2022-11-21T06:44:29;7.7;100.0
21121;DHT22;12519;43.318;21.898;2022-11-21T06:49:05;7.7;100.0
21121;DHT22;12519;43.318;21.898;2022-11-21T06:53:42;8.0;100.0
21121;DHT22;12519;43.318;21.898;2022-11-21T06:58:20;8.0;100.0
21121;DHT22;12519;43.318;21.898;2022-11-21T07:03:01;8.4;100.0
21121;DHT22;12519;43.318;21.898;2022-11-21T07:07:39;8.4;100.0
21121;DHT22;12519;43.318;21.898;2022-11-21T07:12:15;9.1;100.0
21121;DHT22;12519;43.318;21.898;2022-11-21T07:16:51;9.1;100.0
21121;DHT22;12519;43.318;21.898;2022-11-21T07:21:27;9.8;100.0
21121;DHT22;12519;43.318;21.898;2022-11-21T07:26:09;9.8;100.0
21121;DHT22;12519;43.318;21.898;2022-11-21T07:30:46;9.8;100.0
21121;DHT22;12519;43.318;21.898;2022-11-21T07:35:23;9.1;100.0
21121;DHT22;12519;43.318;21.898;2022-11-21T07:40:00;9.1;100.0
21121;DHT22;12519;43.318;21.898;2022-11-21T07:44:36;8.4;100.0
21121;DHT22;12519;43.318;21.898;2022-11-21T07:49:12;8.4;100.0
21121;DHT22;12519;43.318;21.898;2022-11-21T07:53:49;8.6;100.0
21121;DHT22;12519;43.318;21.898;2022-11-21T07:58:26;8.6;100.0
21121;DHT22;12519;43.318;21.898;2022-11-21T08:03:05;8.7;100.0
21121;DHT22;12519;43.318;21.898;2022-11-21T08:07:42;8.7;100.0
21121;DHT22;12519;43.318;21.898;2022-11-21T08:12:19;8.6;100.0
21121;DHT22;12519;43.318;21.898;2022-11-21T08:16:56;8.6;100.0
21121;DHT22;12519;43.318;21.898;2022-11-21T08:21:33;8.4;100.0
21121;DHT22;12519;43.318;21.898;2022-11-21T08:26:09;8.4;100.0
21121;DHT22;12519;43.318;21.898;2022-11-21T08:30:46;8.4;100.0
21121;DHT22;12519;43.318;21.898;2022-11-21T08:35:24;8.4;100.0
21121;DHT22;12519;43.318;21.898;2022-11-21T08:40:01;8.4;100.0
21121;DHT22;12519;43.318;21.898;2022-11-21T08:44:38;8.3;100.0
21121;DHT22;12519;43.318;21.898;2022-11-21T08:49:15;8.3;100.0
21121;DHT22;12519;43.318;21.898;2022-11-21T08:53:51;8.2;100.0
21121;DHT22;12519;43.318;21.898;2022-11-21T08:58:28;8.2;100.0
21121;DHT22;12519;43.318;21.898;2022-11-21T09:03:04;8.2;100.0
21121;DHT22;12519;43.318;21.898;2022-11-21T09:07:41;8.2;100.0
21121;DHT22;12519;43.318;21.898;2022-11-21T09:12:18;9.1;100.0
21121;DHT22;12519;43.318;21.898;2022-11-21T09:16:56;9.1;100.0
21121;DHT22;12519;43.318;21.898;2022-11-21T09:21:32;10.0;100.0
21121;DHT22;12519;43.318;21.898;2022-11-21T09:26:10;10.0;100.0
21121;DHT22;12519;43.318;21.898;2022-11-21T09:30:47;10.0;100.0
21121;DHT22;12519;43.318;21.898;2022-11-21T09:35:24;9.8;100.0
21121;DHT22;12519;43.318;21.898;2022-11-21T09:40:01;9.8;100.0
21121;DHT22;12519;43.318;21.898;2022-11-21T09:45:05;9.5;100.0
21121;DHT22;12519;43.318;21.898;2022-11-21T09:50:04;9.5;100.0
21121;DHT22;12519;43.318;21.898;2022-11-21T09:55:18;9.4;100.0
21121;DHT22;12519;43.318;21.898;2022-11-21T10:00:23;9.4;100.0
21121;DHT22;12519;43.318;21.898;2022-11-21T10:05:00;9.2;100.0
21121;DHT22;12519;43.318;21.898;2022-11-21T10:10:19;9.2;100.0
21121;DHT22;12519;43.318;21.898;2022-11-21T10:15:47;10.4;100.0
21121;DHT22;12519;43.318;21.898;2022-11-21T10:20:57;10.4;100.0
21121;DHT22;12519;43.318;21.898;2022-11-21T10:25:55;11.7;100.0
21121;DHT22;12519;43.318;21.898;2022-11-21T10:30:52;11.7;100.0
21121;DHT22;12519;43.318;21.898;2022-11-21T10:35:45;13.5;97.0
21121;DHT22;12519;43.318;21.898;2022-11-21T10:40:48;13.5;97.0
21121;DHT22;12519;43.318;21.898;2022-11-21T10:45:40;15.3;94.0
21121;DHT22;12519;43.318;21.898;2022-11-21T10:50:49;15.3;94.0
21121;DHT22;12519;43.318;21.898;2022-11-21T10:56:17;13.2;94.0
21121;DHT22;12519;43.318;21.898;2022-11-21T11:01:02;13.2;94.0
21121;DHT22;12519;43.318;21.898;2022-11-21T11:05:39;11.2;94.0
21121;DHT22;12519;43.318;21.898;2022-11-21T11:10:33;11.2;94.0
21121;DHT22;12519;43.318;21.898;2022-11-21T11:15:22;10.7;96.0
21121;DHT22;12519;43.318;21.898;2022-11-21T11:20:29;10.7;96.0
21121;DHT22;12519;43.318;21.898;2022-11-21T11:25:13;10.2;97.0
21121;DHT22;12519;43.318;21.898;2022-11-21T11:29:51;10.2;97.0
21121;DHT22;12519;43.318;21.898;2022-11-21T11:34:40;9.9;98.0
21121;DHT22;12519;43.318;21.898;2022-11-21T11:39:44;9.9;98.0
21121;DHT22;12519;43.318;21.898;2022-11-21T11:45:06;9.6;98.0
21121;DHT22;12519;43.318;21.898;2022-11-21T11:50:02;9.6;98.0
21121;DHT22;12519;43.318;21.898;2022-11-21T11:55:04;9.6;99.0
21121;DHT22;12519;43.318;21.898;2022-11-21T12:00:24;9.6;99.0
21121;DHT22;12519;43.318;21.898;2022-11-21T12:05:26;9.5;99.0
21121;DHT22;12519;43.318;21.898;2022-11-21T12:10:23;9.5;99.0
21121;DHT22;12519;43.318;21.898;2022-11-21T12:15:24;9.4;99.0
21121;DHT22;12519;43.318;21.898;2022-11-21T12:20:23;9.4;99.0
21121;DHT22;12519;43.318;21.898;2022-11-21T12:25:11;9.4;99.0
21121;DHT22;12519;43.318;21.898;2022-11-21T12:30:22;9.4;99.0
21121;DHT22;12519;43.318;21.898;2022-11-21T12:35:48;9.4;99.0
21121;DHT22;12519;43.318;21.898;2022-11-21T12:41:09;9.4;99.0
21121;DHT22;12519;43.318;21.898;2022-11-21T12:46:16;9.5;99.0
21121;DHT22;12519;43.318;21.898;2022-11-21T12:51:34;9.5;99.0
21121;DHT22;12519;43.318;21.898;2022-11-21T12:56:42;9.4;99.0
21121;DHT22;12519;43.318;21.898;2022-11-21T13:01:43;9.3;99.0
21121;DHT22;12519;43.318;21.898;2022-11-21T13:06:45;9.3;99.0
21121;DHT22;12519;43.318;21.898;2022-11-21T13:11:44;9.3;99.0
21121;DHT22;12519;43.318;21.898;2022-11-21T13:16:50;10.6;98.0
21121;DHT22;12519;43.318;21.898;2022-11-21T13:21:51;12.0;96.0
21121;DHT22;12519;43.318;21.898;2022-11-21T13:26:53;12.0;96.0
21121;DHT22;12519;43.318;21.898;2022-11-21T13:31:32;12.0;96.0
21121;DHT22;12519;43.318;21.898;2022-11-21T13:36:36;11.5;96.0
21121;DHT22;12519;43.318;21.898;2022-11-21T13:42:14;11.0;96.0
21121;DHT22;12519;43.318;21.898;2022-11-21T13:47:02;11.0;96.0
21121;DHT22;12519;43.318;21.898;2022-11-21T13:52:56;10.8;96.0
21121;DHT22;12519;43.318;21.898;2022-11-21T13:58:11;10.8;96.0
21121;DHT22;12519;43.318;21.898;2022-11-21T14:03:50;10.6;97.0
21121;DHT22;12519;43.318;21.898;2022-11-21T14:09:18;10.6;97.0
21121;DHT22;12519;43.318;21.898;2022-11-21T14:13:59;10.6;97.0
21121;DHT22;12519;43.318;21.898;2022-11-21T14:18:42;10.6;97.0
21121;DHT22;12519;43.318;21.898;2022-11-21T14:23:24;10.6;97.0
21121;DHT22;12519;43.318;21.898;2022-11-21T14:28:13;10.6;97.0
21121;DHT22;12519;43.318;21.898;2022-11-21T14:33:22;10.6;97.0
21121;DHT22;12519;43.318;21.898;2022-11-21T14:38:05;10.6;97.0
21121;DHT22;12519;43.318;21.898;2022-11-21T14:42:42;10.7;97.0
21121;DHT22;12519;43.318;21.898;2022-11-21T14:47:19;10.7;97.0
21121;DHT22;12519;43.318;21.898;2022-11-21T14:52:16;10.6;97.0
21121;DHT22;12519;43.318;21.898;2022-11-21T14:57:17;10.6;97.0
21121;DHT22;12519;43.318;21.898;2022-11-21T15:02:15;10.5;97.0
21121;DHT22;12519;43.318;21.898;2022-11-21T15:06:57;10.5;97.0
21121;DHT22;12519;43.318;21.898;2022-11-21T15:11:46;10.5;97.0
21121;DHT22;12519;43.318;21.898;2022-11-21T15:16:31;10.6;97.0
21121;DHT22;12519;43.318;21.898;2022-11-21T15:21:15;10.6;97.0
21121;DHT22;12519;43.318;21.898;2022-11-21T15:25:52;10.6;97.0
21121;DHT22;12519;43.318;21.898;2022-11-21T15:30:32;10.6;97.0
21121;DHT22;12519;43.318;21.898;2022-11-21T15:35:39;10.6;98.0
21121;DHT22;12519;43.318;21.898;2022-11-21T15:40:21;10.6;98.0
21121;DHT22;12519;43.318;21.898;2022-11-21T15:45:02;10.5;98.0
21121;DHT22;12519;43.318;21.898;2022-11-21T15:50:02;10.5;98.0
21121;DHT22;12519;43.318;21.898;2022-11-21T15:54:41;10.4;98.0
21121;DHT22;12519;43.318;21.898;2022-11-21T15:59:18;10.4;98.0
21121;DHT22;12519;43.318;21.898;2022-11-21T16:03:59;10.4;98.0
21121;DHT22;12519;43.318;21.898;2022-11-21T16:08:44;10.4;98.0
21121;DHT22;12519;43.318;21.898;2022-11-21T16:13:22;10.2;99.0
21121;DHT22;12519;43.318;21.898;2022-11-21T16:17:59;10.2;99.0
21121;DHT22;12519;43.318;21.898;2022-11-21T16:22:35;10.0;99.0
21121;DHT22;12519;43.318;21.898;2022-11-21T16:27:12;10.0;99.0
21121;DHT22;12519;43.318;21.898;2022-11-21T16:31:49;10.0;99.0
21121;DHT22;12519;43.318;21.898;2022-11-21T16:36:29;10.2;99.0
21121;DHT22;12519;43.318;21.898;2022-11-21T16:41:07;10.2;99.0
21121;DHT22;12519;43.318;21.898;2022-11-21T16:45:43;10.3;99.0
21121;DHT22;12519;43.318;21.898;2022-11-21T16:50:19;10.3;99.0
21121;DHT22;12519;43.318;21.898;2022-11-21T16:54:57;10.4;99.0
21121;DHT22;12519;43.318;21.898;2022-11-21T16:59:33;10.4;99.0
21121;DHT22;12519;43.318;21.898;2022-11-21T17:04:09;10.4;98.0
21121;DHT22;12519;43.318;21.898;2022-11-21T17:08:47;10.4;98.0
21121;DHT22;12519;43.318;21.898;2022-11-21T17:13:24;10.3;99.0
21121;DHT22;12519;43.318;21.898;2022-11-21T17:18:01;10.3;99.0
21121;DHT22;12519;43.318;21.898;2022-11-21T17:22:38;10.2;99.0
21121;DHT22;12519;43.318;21.898;2022-11-21T17:27:14;10.2;99.0
21121;DHT22;12519;43.318;21.898;2022-11-21T17:31:51;10.2;99.0
21121;DHT22;12519;43.318;21.898;2022-11-21T17:36:29;10.1;100.0
21121;DHT22;12519;43.318;21.898;2022-11-21T17:41:11;10.1;100.0
21121;DHT22;12519;43.318;21.898;2022-11-21T17:45:57;10.1;100.0
21121;DHT22;12519;43.318;21.898;2022-11-21T17:50:35;10.1;100.0
21121;DHT22;12519;43.318;21.898;2022-11-21T17:55:11;10.1;100.0
21121;DHT22;12519;43.318;21.898;2022-11-21T17:59:48;10.1;100.0
21121;DHT22;12519;43.318;21.898;2022-11-21T18:04:24;10.1;100.0
21121;DHT22;12519;43.318;21.898;2022-11-21T18:09:03;10.1;100.0
21121;DHT22;12519;43.318;21.898;2022-11-21T18:13:43;10.0;100.0
21121;DHT22;12519;43.318;21.898;2022-11-21T18:18:20;10.0;100.0
21121;DHT22;12519;43.318;21.898;2022-11-21T18:22:57;10.0;100.0
21121;DHT22;12519;43.318;21.898;2022-11-21T18:27:33;10.0;100.0
21121;DHT22;12519;43.318;21.898;2022-11-21T18:32:09;10.0;100.0
21121;DHT22;12519;43.318;21.898;2022-11-21T18:36:46;10.0;100.0
21121;DHT22;12519;43.318;21.898;2022-11-21T18:41:26;10.0;100.0
21121;DHT22;12519;43.318;21.898;2022-11-21T18:46:10;10.0;100.0
21121;DHT22;12519;43.318;21.898;2022-11-21T18:50:49;10.0;100.0
21121;DHT22;12519;43.318;21.898;2022-11-21T18:55:26;9.6;100.0
21121;DHT22;12519;43.318;21.898;2022-11-21T19:00:05;9.6;100.0
21121;DHT22;12519;43.318;21.898;2022-11-21T19:04:45;9.2;100.0
21121;DHT22;12519;43.318;21.898;2022-11-21T19:09:22;9.2;100.0
21121;DHT22;12519;43.318;21.898;2022-11-21T19:13:58;9.2;100.0
21121;DHT22;12519;43.318;21.898;2022-11-21T19:18:38;9.2;100.0
21121;DHT22;12519;43.318;21.898;2022-11-21T19:23:16;9.2;100.0
21121;DHT22;12519;43.318;21.898;2022-11-21T19:27:52;9.2;100.0
21121;DHT22;12519;43.318;21.898;2022-11-21T19:32:30;9.2;100.0
21121;DHT22;12519;43.318;21.898;2022-11-21T19:37:06;9.1;100.0
21121;DHT22;12519;43.318;21.898;2022-11-21T19:41:42;9.1;100.0
21121;DHT22;12519;43.318;21.898;2022-11-21T19:46:22;9.1;100.0
21121;DHT22;12519;43.318;21.898;2022-11-21T19:51:03;9.1;100.0
21121;DHT22;12519;43.318;21.898;2022-11-21T19:55:40;9.2;100.0
21121;DHT22;12519;43.318;21.898;2022-11-21T20:00:18;9.2;100.0
21121;DHT22;12519;43.318;21.898;2022-11-21T20:04:55;9.4;100.0
21121;DHT22;12519;43.318;21.898;2022-11-21T20:09:31;9.4;100.0
21121;DHT22;12519;43.318;21.898;2022-11-21T20:14:08;9.4;100.0
21121;DHT22;12519;43.318;21.898;2022-11-21T20:18:48;9.4;100.0
21121;DHT22;12519;43.318;21.898;2022-11-21T20:23:26;9.5;100.0
21121;DHT22;12519;43.318;21.898;2022-11-21T20:28:02;9.5;100.0
21121;DHT22;12519;43.318;21.898;2022-11-21T20:32:39;9.8;100.0
21121;DHT22;12519;43.318;21.898;2022-11-21T20:37:15;9.8;100.0
21121;DHT22;12519;43.318;21.898;2022-11-21T20:41:51;9.8;100.0
21121;DHT22;12519;43.318;21.898;2022-11-21T20:46:28;10.0;100.0
21121;DHT22;12519;43.318;21.898;2022-11-21T20:51:05;10.0;100.0
21121;DHT22;12519;43.318;21.898;2022-11-21T20:55:41;9.8;100.0
21121;DHT22;12519;43.318;21.898;2022-11-21T21:00:18;9.8;100.0
21121;DHT22;12519;43.318;21.898;2022-11-21T21:04:55;9.7;100.0
21121;DHT22;12519;43.318;21.898;2022-11-21T21:09:31;9.7;100.0
21121;DHT22;12519;43.318;21.898;2022-11-21T21:14:07;9.6;100.0
21121;DHT22;12519;43.318;21.898;2022-11-21T21:18:45;9.6;100.0
21121;DHT22;12519;43.318;21.898;2022-11-21T21:23:24;9.6;100.0
21121;DHT22;12519;43.318;21.898;2022-11-21T21:28:00;9.6;100.0
21121;DHT22;12519;43.318;21.898;2022-11-21T21:32:38;9.6;100.0
21121;DHT22;12519;43.318;21.898;2022-11-21T21:37:17;9.4;100.0
21121;DHT22;12519;43.318;21.898;2022-11-21T21:41:54;9.4;100.0
21121;DHT22;12519;43.318;21.898;2022-11-21T21:46:31;9.1;100.0
21121;DHT22;12519;43.318;21.898;2022-11-21T21:51:17;9.1;100.0
21121;DHT22;12519;43.318;21.898;2022-11-21T21:55:59;9.3;100.0
21121;DHT22;12519;43.318;21.898;2022-11-21T22:00:35;9.3;100.0
21121;DHT22;12519;43.318;21.898;2022-11-21T22:05:11;9.5;100.0
21121;DHT22;12519;43.318;21.898;2022-11-21T22:09:48;9.5;100.0
21121;DHT22;12519;43.318;21.898;2022-11-21T22:14:24;9.3;100.0
21121;DHT22;12519;43.318;21.898;2022-11-21T22:19:00;9.3;100.0
21121;DHT22;12519;43.318;21.898;2022-11-21T22:23:36;9.1;100.0
21121;DHT22;12519;43.318;21.898;2022-11-21T22:28:14;9.1;100.0
21121;DHT22;12519;43.318;21.898;2022-11-21T22:32:51;9.1;100.0
21121;DHT22;12519;43.318;21.898;2022-11-21T22:37:28;9.4;100.0
21121;DHT22;12519;43.318;21.898;2022-11-21T22:42:04;9.4;100.0
21121;DHT22;12519;43.318;21.898;2022-11-21T22:46:41;9.6;100.0
21121;DHT22;12519;43.318;21.898;2022-11-21T22:51:23;9.6;100.0
21121;DHT22;12519;43.318;21.898;2022-11-21T22:56:09;9.6;100.0
21121;DHT22;12519;43.318;21.898;2022-11-21T23:00:46;9.6;100.0
21121;DHT22;12519;43.318;21.898;2022-11-21T23:05:22;9.7;100.0
21121;DHT22;12519;43.318;21.898;2022-11-21T23:09:58;9.7;100.0
21121;DHT22;12519;43.318;21.898;2022-11-21T23:14:35;9.8;100.0
21121;DHT22;12519;43.318;21.898;2022-11-21T23:19:11;9.8;100.0
21121;DHT22;12519;43.318;21.898;2022-11-21T23:23:47;9.8;100.0
21121;DHT22;12519;43.318;21.898;2022-11-21T23:28:24;9.8;100.0
21121;DHT22;12519;43.318;21.898;2022-11-21T23:33:00;9.8;100.0
21121;DHT22;12519;43.318;21.898;2022-11-21T23:37:37;9.9;100.0
21121;DHT22;12519;43.318;21.898;2022-11-21T23:42:13;9.9;100.0
21121;DHT22;12519;43.318;21.898;2022-11-21T23:46:49;10.0;100.0
21121;DHT22;12519;43.318;21.898;2022-11-21T23:51:26;10.0;100.0
21121;DHT22;12519;43.318;21.898;2022-11-21T23:56:03;9.8;100.0
